createdAt,value
2023-01-21T00:00:38.128Z,59.63
2023-01-21T00:03:08.196Z,56.80
2023-01-21T00:05:38.042Z,55.70
2023-01-21T00:08:07.809Z,54.08
2023-01-21T00:10:37.322Z,52.90
2023-01-21T00:13:07.026Z,48.97
2023-01-21T00:15:38.139Z,47.63
2023-01-21T00:18:08.110Z,46.80
2023-01-21T00:20:37.695Z,47.45
2023-01-21T00:23:07.707Z,52.13
2023-01-21T00:25:37.221Z,52.15
2023-01-21T00:28:06.997Z,85.57
2023-01-21T00:30:37.868Z,98.18
2023-01-21T00:33:07.433Z,87.93
2023-01-21T00:35:37.272Z,80.50
2023-01-21T00:38:06.602Z,75.32
2023-01-21T00:40:36.716Z,72.40
2023-01-21T00:43:06.239Z,80.20
2023-01-21T00:45:35.641Z,95.80
2023-01-21T00:48:05.450Z,128.77
2023-01-21T00:50:35.104Z,178.77
2023-01-21T00:53:04.661Z,171.02
2023-01-21T00:55:34.054Z,169.88
2023-01-21T00:58:03.849Z,158.45
2023-01-21T01:00:33.875Z,158.45
2023-01-21T01:03:03.621Z,168.45
2023-01-21T01:05:34.721Z,165.70
2023-01-21T01:08:05.376Z,173.52
2023-01-21T01:10:40.217Z,160.60
2023-01-21T01:13:10.396Z,155.73
2023-01-21T01:15:41.341Z,132.60
2023-01-21T01:18:11.805Z,91.40
2023-01-21T01:20:48.800Z,69.53
2023-01-21T01:23:19.184Z,55.90
2023-01-21T01:26:09.328Z,52.67
2023-01-21T01:28:39.915Z,48.60
2023-01-21T01:31:13.910Z,49.28
2023-01-21T01:33:45.236Z,50.85
2023-01-21T01:36:21.132Z,54.67
2023-01-21T01:38:51.961Z,54.17
2023-01-21T01:41:30.244Z,56.58
2023-01-21T01:44:27.421Z,56.63
2023-01-21T01:47:01.616Z,59.22
2023-01-21T01:49:31.948Z,61.35
2023-01-21T01:52:06.543Z,64.45
2023-01-21T01:54:44.126Z,67.05
2023-01-21T01:57:17.660Z,66.28
2023-01-21T01:59:48.984Z,63.13
2023-01-21T02:02:21.932Z,67.50
2023-01-21T02:04:58.721Z,78.60
2023-01-21T02:07:34.571Z,82.82
2023-01-21T02:10:05.071Z,83.63
2023-01-21T02:12:38.203Z,80.07
2023-01-21T02:15:09.476Z,85.32
2023-01-21T02:21:13.016Z,80.50
2023-01-21T02:24:10.876Z,95.15
2023-01-21T02:26:59.834Z,105.05
2023-01-21T02:29:56.940Z,101.97
2023-01-21T02:33:11.519Z,102.82
2023-01-21T02:35:54.022Z,98.82
2023-01-21T02:38:31.015Z,101.78
2023-01-21T02:41:09.027Z,106.38
2023-01-21T02:44:06.095Z,110.13
2023-01-21T02:47:02.662Z,109.45
2023-01-21T02:50:29.508Z,115.72
2023-01-21T02:53:05.495Z,113.65
2023-01-21T02:55:38.885Z,114.97
2023-01-21T02:58:16.476Z,115.40
2023-01-21T03:01:07.612Z,110.15
2023-01-21T03:03:50.476Z,105.65
2023-01-21T03:06:31.387Z,106.55
2023-01-21T03:09:22.712Z,114.75
2023-01-21T03:12:07.435Z,109.28
2023-01-21T03:15:10.897Z,113.28
2023-01-21T03:17:56.091Z,110.75
2023-01-21T03:20:35.497Z,114.25
2023-01-21T03:23:12.013Z,115.72
2023-01-21T03:25:43.631Z,117.55
2023-01-21T03:28:19.132Z,115.35
2023-01-21T03:30:57.806Z,114.28
2023-01-21T03:33:31.687Z,116.30
2023-01-21T03:36:07.894Z,113.35
2023-01-21T03:38:46.200Z,119.10
2023-01-21T03:41:22.800Z,123.38
2023-01-21T03:43:54.166Z,130.70
2023-01-21T03:46:45.835Z,141.25
2023-01-21T03:49:47.355Z,141.52
2023-01-21T03:52:20.284Z,136.18
2023-01-21T03:54:51.265Z,136.20
2023-01-21T03:57:21.487Z,157.25
2023-01-21T03:59:51.781Z,173.07
2023-01-21T04:02:22.329Z,168.45
2023-01-21T04:04:54.048Z,165.95
2023-01-21T04:07:23.677Z,160.18
2023-01-21T04:09:53.279Z,141.20
2023-01-21T04:12:23.008Z,128.43
2023-01-21T04:14:52.506Z,146.80
2023-01-21T04:17:22.052Z,132.43
2023-01-21T04:19:52.245Z,135.65
2023-01-21T04:22:21.785Z,142.05
2023-01-21T04:24:51.253Z,150.05
2023-01-21T04:27:20.883Z,133.85
2023-01-21T04:29:50.336Z,115.32
2023-01-21T04:32:20.022Z,110.18
2023-01-21T04:34:49.529Z,103.40
2023-01-21T04:37:19.268Z,94.43
2023-01-21T04:39:48.809Z,86.78
2023-01-21T04:42:18.285Z,90.88
2023-01-21T04:44:48.611Z,81.25
2023-01-21T04:47:18.419Z,72.50
2023-01-21T04:49:49.871Z,61.35
2023-01-21T04:52:19.833Z,57.28
2023-01-21T04:54:49.150Z,56.03
2023-01-21T04:57:18.758Z,49.00
2023-01-21T04:59:48.487Z,48.15
2023-01-21T05:02:18.177Z,45.63
2023-01-21T05:04:47.900Z,43.85
2023-01-21T05:07:18.290Z,44.75
2023-01-21T05:09:49.352Z,37.53
2023-01-21T05:12:18.835Z,33.25
2023-01-21T05:14:48.415Z,33.40
2023-01-21T05:17:17.867Z,29.52
2023-01-21T05:19:47.667Z,27.20
2023-01-21T05:22:17.251Z,23.70
2023-01-21T05:24:49.823Z,23.92
2023-01-21T05:27:21.182Z,23.77
2023-01-21T05:29:50.859Z,22.27
2023-01-21T05:32:21.300Z,20.65
2023-01-21T05:34:50.983Z,20.35
2023-01-21T05:37:20.748Z,21.75
2023-01-21T05:39:50.328Z,19.08
2023-01-21T05:42:19.808Z,24.90
2023-01-21T05:44:49.413Z,22.13
2023-01-21T05:47:19.171Z,21.52
2023-01-21T05:49:48.940Z,26.42
2023-01-21T05:52:18.545Z,22.52
2023-01-21T05:55:01.057Z,19.67
2023-01-21T05:57:32.148Z,18.90
2023-01-21T06:00:01.812Z,22.95
2023-01-21T06:02:34.056Z,19.35
2023-01-21T06:05:03.692Z,23.40
2023-01-21T06:07:33.102Z,24.65
2023-01-21T06:10:02.700Z,23.48
2023-01-21T06:12:32.007Z,20.08
2023-01-21T06:15:01.775Z,21.25
2023-01-21T06:17:31.193Z,23.00
2023-01-21T06:20:00.710Z,18.55
2023-01-21T06:22:30.295Z,18.42
2023-01-21T06:25:00.075Z,18.42
2023-01-21T06:27:30.164Z,20.63
2023-01-21T06:29:59.636Z,18.58
2023-01-21T06:32:29.021Z,18.35
2023-01-21T06:34:58.869Z,16.95
2023-01-21T06:37:29.011Z,18.00
2023-01-21T06:39:58.913Z,17.40
2023-01-21T06:42:30.761Z,17.38
2023-01-21T06:45:00.489Z,17.75
2023-01-21T06:47:29.884Z,17.02
2023-01-21T06:49:59.494Z,15.23
2023-01-21T06:52:29.107Z,15.27
2023-01-21T06:54:58.670Z,13.35
2023-01-21T06:57:27.979Z,20.17
2023-01-21T06:59:57.688Z,19.38
2023-01-21T07:02:27.224Z,15.73
2023-01-21T07:04:59.001Z,16.83
2023-01-21T07:07:29.333Z,13.43
2023-01-21T07:09:59.119Z,13.75
2023-01-21T07:12:28.386Z,12.00
2023-01-21T07:14:57.928Z,12.88
2023-01-21T07:17:27.432Z,13.55
2023-01-21T07:19:57.049Z,12.85
2023-01-21T07:22:27.077Z,12.80
2023-01-21T07:24:56.590Z,14.25
2023-01-21T07:27:26.089Z,11.75
2023-01-21T07:29:55.794Z,11.98
2023-01-21T07:32:25.068Z,12.35
2023-01-21T07:34:54.987Z,13.57
2023-01-21T07:37:27.159Z,11.70
2023-01-21T07:39:57.555Z,14.75
2023-01-21T07:42:27.208Z,15.95
2023-01-21T07:44:58.153Z,15.18
2023-01-21T07:47:27.805Z,15.60
2023-01-21T07:49:57.678Z,16.73
2023-01-21T07:52:27.147Z,15.95
2023-01-21T07:54:56.776Z,16.77
2023-01-21T07:57:26.458Z,16.70
2023-01-21T07:59:56.101Z,15.70
2023-01-21T08:02:26.651Z,13.98
2023-01-21T08:04:56.402Z,16.00
2023-01-21T08:07:25.766Z,13.95
2023-01-21T08:09:55.544Z,14.05
2023-01-21T08:12:27.170Z,14.15
2023-01-21T08:14:57.166Z,12.83
2023-01-21T08:17:26.827Z,13.43
2023-01-21T08:19:56.320Z,13.05
2023-01-21T08:22:27.103Z,13.45
2023-01-21T08:24:56.825Z,11.35
2023-01-21T08:27:26.200Z,13.52
2023-01-21T08:29:55.855Z,12.27
2023-01-21T08:32:25.987Z,17.33
2023-01-21T08:34:55.410Z,12.93
2023-01-21T08:37:24.756Z,13.60
2023-01-21T08:39:54.521Z,12.23
2023-01-21T08:42:23.961Z,12.02
2023-01-21T08:44:55.285Z,15.35
2023-01-21T08:47:24.881Z,14.63
2023-01-21T08:49:54.343Z,15.43
2023-01-21T08:52:24.166Z,15.07
2023-01-21T08:54:53.839Z,18.15
2023-01-21T08:57:23.375Z,14.77
2023-01-21T08:59:53.071Z,14.55
2023-01-21T09:02:22.716Z,14.38
2023-01-21T09:04:52.363Z,14.68
2023-01-21T09:07:22.093Z,16.48
2023-01-21T09:09:51.564Z,16.75
2023-01-21T09:12:21.137Z,15.18
2023-01-21T09:14:50.768Z,15.77
2023-01-21T09:17:20.314Z,14.80
2023-01-21T09:19:50.440Z,15.90
2023-01-21T09:22:20.207Z,17.02
2023-01-21T09:24:49.601Z,14.55
2023-01-21T09:27:19.286Z,48.35
2023-01-21T09:29:48.627Z,31.85
2023-01-21T09:32:18.005Z,15.88
2023-01-21T09:34:47.685Z,16.35
2023-01-21T09:37:17.064Z,14.10
2023-01-21T09:39:49.283Z,15.05
2023-01-21T09:42:23.386Z,15.73
2023-01-21T09:44:55.989Z,14.35
2023-01-21T09:47:34.932Z,13.77
2023-01-21T09:50:09.917Z,13.07
2023-01-21T09:52:44.144Z,13.02
2023-01-21T09:55:25.642Z,14.75
2023-01-21T09:58:35.432Z,15.82
2023-01-21T10:01:20.683Z,14.77
2023-01-21T10:03:55.369Z,14.13
2023-01-21T10:07:15.408Z,15.15
2023-01-21T10:10:05.685Z,14.80
2023-01-21T10:12:55.683Z,15.70
2023-01-21T10:15:51.661Z,15.52
2023-01-21T10:18:30.710Z,13.88
2023-01-21T10:21:19.795Z,15.43
2023-01-21T10:24:02.502Z,15.95
2023-01-21T10:26:35.614Z,25.88
2023-01-21T10:29:06.432Z,16.65
2023-01-21T10:31:44.275Z,16.83
2023-01-21T10:34:16.367Z,17.15
2023-01-21T10:36:52.666Z,19.70
2023-01-21T10:39:28.490Z,24.83
2023-01-21T10:42:06.722Z,22.63
2023-01-21T10:44:48.509Z,21.40
2023-01-21T10:47:44.244Z,18.63
2023-01-21T10:50:19.285Z,18.52
2023-01-21T10:53:15.232Z,18.77
2023-01-21T10:56:02.039Z,17.17
2023-01-21T10:58:35.453Z,18.17
2023-01-21T11:01:09.835Z,16.95
2023-01-21T11:03:43.999Z,16.92
2023-01-21T11:06:16.799Z,19.58
2023-01-21T11:11:27.753Z,15.50
2023-01-21T11:13:58.284Z,15.65
2023-01-21T11:16:44.385Z,17.42
2023-01-21T11:19:17.135Z,16.23
2023-01-21T11:22:07.248Z,17.52
2023-01-21T11:24:52.481Z,22.20
2023-01-21T11:27:40.620Z,23.15
2023-01-21T11:30:55.217Z,25.60
2023-01-21T11:33:28.583Z,19.45
2023-01-21T11:35:59.454Z,21.08
2023-01-21T11:38:31.859Z,24.10
2023-01-21T11:41:08.848Z,23.15
2023-01-21T11:43:47.652Z,25.08
2023-01-21T11:46:36.815Z,28.20
2023-01-21T11:49:09.391Z,27.85
2023-01-21T11:54:26.011Z,26.20
2023-01-21T11:57:01.842Z,25.05
2023-01-21T11:59:45.423Z,25.90
2023-01-21T12:02:41.428Z,26.08
2023-01-21T12:05:25.141Z,27.02
2023-01-21T12:07:54.763Z,25.67
2023-01-21T12:10:35.052Z,24.13
2023-01-21T12:13:37.753Z,23.83
2023-01-21T12:16:25.446Z,25.80
2023-01-21T12:19:22.629Z,26.80
2023-01-21T12:22:30.941Z,28.20
2023-01-21T12:25:39.372Z,29.10
2023-01-21T12:28:52.349Z,30.63
2023-01-21T12:31:30.380Z,32.15
2023-01-21T12:34:14.042Z,33.90
2023-01-21T12:37:08.536Z,31.45
2023-01-21T12:39:39.800Z,35.38
2023-01-21T12:42:21.978Z,29.92
2023-01-21T12:45:16.559Z,35.42
2023-01-21T12:47:58.009Z,37.40
2023-01-21T12:50:49.624Z,38.40
2023-01-21T12:53:43.351Z,39.10
2023-01-21T12:56:35.088Z,39.92
2023-01-21T12:59:18.279Z,40.15
2023-01-21T13:02:19.630Z,44.42
2023-01-21T13:05:05.636Z,48.85
2023-01-21T13:07:53.417Z,49.55
2023-01-21T13:10:33.772Z,57.15
2023-01-21T13:13:24.383Z,46.58
2023-01-21T13:15:59.017Z,41.85
2023-01-21T13:18:37.842Z,40.88
2023-01-21T13:21:19.516Z,41.05
2023-01-21T13:24:16.945Z,42.55
2023-01-21T13:26:55.439Z,43.03
2023-01-21T13:29:53.327Z,42.53
2023-01-21T13:33:00.988Z,62.97
2023-01-21T13:35:36.226Z,53.15
2023-01-21T13:38:22.977Z,48.97
2023-01-21T13:41:33.548Z,51.05
2023-01-21T13:44:14.434Z,43.90
2023-01-21T13:46:47.132Z,43.88
2023-01-21T13:52:13.351Z,39.33
2023-01-21T13:55:01.930Z,39.60
2023-01-21T13:58:20.523Z,36.60
2023-01-21T14:01:04.510Z,34.00
2023-01-21T14:03:48.874Z,38.00
2023-01-21T14:06:30.878Z,36.70
2023-01-21T14:09:13.681Z,43.65
2023-01-21T14:12:09.042Z,45.05
2023-01-21T14:14:57.117Z,46.00
2023-01-21T14:18:04.591Z,45.42
2023-01-21T14:21:05.943Z,45.70
2023-01-21T14:23:44.741Z,46.55
2023-01-21T14:26:32.342Z,49.10
2023-01-21T14:29:20.052Z,48.45
2023-01-21T14:32:14.010Z,53.65
2023-01-21T14:35:14.983Z,50.45
2023-01-21T14:38:25.636Z,49.13
2023-01-21T14:41:10.628Z,50.42
2023-01-21T14:43:41.563Z,50.25
2023-01-21T14:46:35.336Z,50.83
2023-01-21T14:49:10.413Z,56.40
2023-01-21T14:51:49.440Z,54.13
2023-01-21T14:54:29.221Z,53.67
2023-01-21T14:57:17.303Z,51.13
2023-01-21T14:59:48.943Z,54.55
2023-01-21T15:02:37.116Z,54.38
2023-01-21T15:05:22.703Z,63.90
2023-01-21T15:08:20.012Z,85.13
2023-01-21T15:11:09.301Z,87.35
2023-01-21T15:13:41.436Z,99.05
2023-01-21T15:16:34.802Z,116.80
2023-01-21T15:19:10.383Z,88.15
2023-01-21T15:22:20.359Z,69.50
2023-01-21T15:25:04.219Z,72.15
2023-01-21T15:27:34.319Z,88.75
2023-01-21T15:30:07.016Z,89.82
2023-01-21T15:35:47.342Z,75.93
2023-01-21T15:38:18.541Z,59.38
2023-01-21T15:40:56.516Z,64.95
2023-01-21T15:43:58.194Z,60.25
2023-01-21T15:46:43.002Z,59.80
2023-01-21T15:49:37.503Z,59.33
2023-01-21T15:52:49.208Z,60.42
2023-01-21T15:55:47.745Z,60.58
2023-01-21T15:58:42.925Z,57.05
2023-01-21T16:01:35.741Z,63.05
2023-01-21T16:04:31.955Z,66.95
2023-01-21T16:07:20.359Z,62.55
2023-01-21T16:10:34.298Z,66.50
2023-01-21T16:13:51.623Z,60.35
2023-01-21T16:16:46.155Z,61.47
2023-01-21T16:19:29.209Z,61.50
2023-01-21T16:22:03.070Z,67.35
2023-01-21T16:24:39.597Z,64.95
2023-01-21T16:27:19.798Z,67.07
2023-01-21T16:29:49.975Z,68.63
2023-01-21T16:32:21.615Z,78.43
2023-01-21T16:34:52.853Z,74.13
2023-01-21T16:37:27.777Z,84.03
2023-01-21T16:40:12.199Z,86.70
2023-01-21T16:42:43.220Z,84.18
2023-01-21T16:45:23.931Z,79.82
2023-01-21T16:47:59.965Z,80.80
2023-01-21T16:50:32.189Z,79.18
2023-01-21T16:53:09.200Z,80.82
2023-01-21T16:55:49.656Z,85.50
2023-01-21T16:58:33.565Z,100.80
2023-01-21T17:01:17.350Z,110.88
2023-01-21T17:03:51.067Z,107.82
2023-01-21T17:06:26.782Z,108.13
2023-01-21T17:09:06.368Z,109.43
2023-01-21T17:11:38.299Z,108.35
2023-01-21T17:14:12.266Z,109.82
2023-01-21T17:16:43.898Z,101.15
2023-01-21T17:19:44.527Z,102.60
2023-01-21T17:22:20.722Z,93.75
2023-01-21T17:25:27.184Z,93.00
2023-01-21T17:27:58.150Z,84.40
2023-01-21T17:30:32.972Z,83.07
2023-01-21T17:33:05.021Z,82.80
2023-01-21T17:35:35.544Z,87.07
2023-01-21T17:38:07.571Z,88.20
2023-01-21T17:41:02.227Z,83.07
2023-01-21T17:43:34.779Z,88.55
2023-01-21T17:46:05.482Z,89.22
2023-01-21T17:48:46.733Z,91.90
2023-01-21T17:51:25.192Z,93.50
2023-01-21T17:53:57.858Z,91.90
2023-01-21T17:56:51.448Z,94.15
2023-01-21T17:59:38.902Z,96.47
2023-01-21T18:02:11.789Z,98.30
2023-01-21T18:04:43.055Z,101.38
2023-01-21T18:07:28.752Z,105.63
2023-01-21T18:10:04.052Z,114.50
2023-01-21T18:12:33.781Z,117.30
2023-01-21T18:15:03.979Z,115.30
2023-01-21T18:17:35.118Z,114.43
2023-01-21T18:20:05.558Z,116.75
2023-01-21T18:22:37.163Z,111.50
2023-01-21T18:25:08.341Z,108.80
2023-01-21T18:27:38.207Z,111.03
2023-01-21T18:30:20.106Z,111.85
2023-01-21T18:32:51.024Z,109.40
2023-01-21T18:35:28.808Z,113.60
2023-01-21T18:37:59.022Z,112.30
2023-01-21T18:40:29.067Z,113.95
2023-01-21T18:42:59.379Z,112.60
2023-01-21T18:45:30.294Z,112.75
2023-01-21T18:48:00.113Z,113.32
2023-01-21T18:50:31.441Z,113.80
2023-01-21T18:53:01.216Z,112.32
2023-01-21T18:55:31.082Z,112.15
2023-01-21T18:58:00.786Z,111.88
2023-01-21T19:00:32.628Z,111.97
2023-01-21T19:03:03.061Z,111.78
2023-01-21T19:05:37.498Z,117.57
2023-01-21T19:08:15.901Z,116.07
2023-01-21T19:10:45.774Z,117.80
2023-01-21T19:13:18.017Z,118.07
2023-01-21T19:15:50.037Z,115.90
2023-01-21T19:18:19.738Z,111.93
2023-01-21T19:20:49.302Z,116.18
2023-01-21T19:23:19.871Z,116.65
2023-01-21T19:25:58.164Z,113.95
2023-01-21T19:28:27.926Z,114.35
2023-01-21T19:30:59.558Z,116.70
2023-01-21T19:33:29.321Z,114.65
2023-01-21T19:36:06.476Z,115.15
2023-01-21T19:38:36.225Z,111.53
2023-01-21T19:41:06.594Z,114.82
2023-01-21T19:43:37.856Z,114.95
2023-01-21T19:46:13.127Z,114.95
2023-01-21T19:48:43.143Z,113.20
2023-01-21T19:51:12.794Z,110.50
2023-01-21T19:53:42.710Z,107.10
2023-01-21T19:56:18.625Z,114.28
2023-01-21T19:58:49.712Z,109.10
2023-01-21T20:01:19.306Z,112.90
2023-01-21T20:03:59.779Z,112.55
2023-01-21T20:06:35.238Z,111.40
2023-01-21T20:09:06.168Z,111.93
2023-01-21T20:11:36.093Z,109.20
2023-01-21T20:14:05.841Z,113.35
2023-01-21T20:16:35.857Z,113.90
2023-01-21T20:19:07.689Z,123.03
2023-01-21T20:21:54.703Z,132.90
2023-01-21T20:24:31.394Z,121.38
2023-01-21T20:27:01.686Z,120.53
2023-01-21T20:29:31.142Z,121.50
2023-01-21T20:32:00.866Z,125.65
2023-01-21T20:34:32.684Z,125.75
2023-01-21T20:37:02.621Z,128.25
2023-01-21T20:39:32.264Z,127.43
2023-01-21T20:42:01.839Z,133.68
2023-01-21T20:44:31.510Z,130.25
2023-01-21T20:47:02.579Z,132.65
2023-01-21T20:49:32.279Z,128.82
2023-01-21T20:52:01.886Z,132.38
2023-01-21T20:54:31.498Z,133.13
2023-01-21T20:57:01.203Z,132.27
2023-01-21T20:59:30.615Z,129.60
2023-01-21T21:02:00.403Z,134.27
2023-01-21T21:04:31.188Z,129.77
2023-01-21T21:07:00.857Z,128.65
2023-01-21T21:09:30.434Z,130.63
2023-01-21T21:12:02.886Z,125.70
2023-01-21T21:14:32.479Z,125.03
2023-01-21T21:17:01.898Z,123.63
2023-01-21T21:19:31.556Z,122.78
2023-01-21T21:22:01.117Z,127.57
2023-01-21T21:24:31.166Z,118.13
2023-01-21T21:27:01.581Z,112.90
2023-01-21T21:29:31.707Z,113.90
2023-01-21T21:32:03.415Z,112.03
2023-01-21T21:34:33.228Z,104.30
2023-01-21T21:37:03.003Z,112.60
2023-01-21T21:39:34.278Z,116.85
2023-01-21T21:42:22.304Z,116.50
2023-01-21T21:44:51.841Z,120.85
2023-01-21T21:47:39.389Z,117.93
2023-01-21T21:50:09.502Z,123.55
2023-01-21T21:52:39.116Z,128.52
2023-01-21T21:55:11.632Z,124.50
2023-01-21T21:57:42.881Z,125.05
2023-01-21T22:00:13.904Z,130.73
2023-01-21T22:02:43.475Z,131.32
2023-01-21T22:05:13.720Z,124.82
2023-01-21T22:07:43.440Z,129.73
2023-01-21T22:10:13.576Z,134.52
2023-01-21T22:12:43.410Z,134.95
2023-01-21T22:15:13.253Z,144.10
2023-01-21T22:17:42.704Z,144.65
2023-01-21T22:20:13.186Z,150.50
2023-01-21T22:22:42.990Z,149.10
2023-01-21T22:25:12.834Z,150.48
2023-01-21T22:27:42.620Z,152.60
2023-01-21T22:30:13.438Z,152.18
2023-01-21T22:32:43.064Z,151.43
2023-01-21T22:35:12.583Z,148.82
2023-01-21T22:37:42.047Z,147.82
2023-01-21T22:40:12.305Z,152.82
2023-01-21T22:42:41.885Z,137.98
2023-01-21T22:45:11.693Z,133.20
2023-01-21T22:47:41.109Z,132.60
2023-01-21T22:50:11.480Z,125.60
2023-01-21T22:52:42.777Z,134.95
2023-01-21T22:55:12.534Z,140.68
2023-01-21T22:57:42.362Z,148.15
2023-01-21T23:00:16.869Z,149.55
2023-01-21T23:02:46.274Z,135.10
2023-01-21T23:05:15.753Z,134.60
2023-01-21T23:07:45.524Z,126.03
2023-01-21T23:10:14.905Z,123.90
2023-01-21T23:12:44.742Z,126.82
2023-01-21T23:15:14.234Z,119.45
2023-01-21T23:17:43.600Z,109.85
2023-01-21T23:20:13.565Z,105.57
2023-01-21T23:22:43.123Z,100.28
2023-01-21T23:25:15.447Z,93.55
2023-01-21T23:27:45.043Z,83.13
2023-01-21T23:30:15.717Z,84.45
2023-01-21T23:32:45.399Z,86.28
2023-01-21T23:35:15.107Z,86.25
2023-01-21T23:37:44.952Z,82.40
2023-01-21T23:40:14.749Z,76.65
2023-01-21T23:42:44.453Z,76.45
2023-01-21T23:45:13.988Z,76.95
2023-01-21T23:47:43.648Z,73.55
2023-01-21T23:50:15.580Z,78.32
2023-01-21T23:52:45.235Z,78.10
2023-01-21T23:55:15.915Z,75.82
2023-01-21T23:57:45.605Z,79.50
